The Lakes, Nevada
Current Conditions -  °F | °C
As of 6:53 PM on Friday 21 Nov 2014 (Local Time) from KVGT Reporting Station
Clear Clear  
Wind Chill: 57°   Ceiling: Unl
Heat Index: 57°   Visibility: 10mi
Dew Point: 27°   Wind: 5mph
Humidity: 32%   Direction: 300°WNW
Pressure: 29.98"   Gusts: NA
Location:  36.14°N, 115.29°W
Report Text: KVGT 220253Z 30004KT 10SM CLR 14/M03 A2998 RMK AO2 SLP168 T01391028 51016
Loading
Personal Weather Stations






























Interactive Weather Map New forecast layout! Learn more

10-Day Weather Forecast

Advertisements
Track Severe Weather on mobile